Time;durP1;ratioP1;P1;durP2;ratioP2;P2;SDS_P1;SDS_P2;PMS_P1;PMS_P2;Temp;Humidity;BMP_temperature;BMP_pressure;BME280_temperature;BME280_humidity;BME280_pressure;Samples;Min_cycle;Max_cycle;Signal;HPM_P1;HPM_P2
2023/04/15 00:01:17;;;;;;;17.30;8.68;;;;;;;;;;5059866;28;20028;-64
2023/04/15 00:03:43;;;;;;;13.75;8.75;;;;;;;;;;5059607;28;20486;-66
2023/04/15 00:06:08;;;;;;;14.35;9.40;;;;;;;;;;5057889;28;20040;-65
2023/04/15 00:08:33;;;;;;;15.52;9.00;;;;;;;;;;5057253;28;20548;-65
2023/04/15 00:11:01;;;;;;;13.93;8.75;;;;;;;;;;5057650;28;20101;-65
2023/04/15 00:13:27;;;;;;;15.70;9.38;;;;;;;;;;5036875;28;20036;-65
2023/04/15 00:15:52;;;;;;;16.15;9.20;;;;;;;;;;5057435;28;20606;-67
2023/04/15 00:18:17;;;;;;;15.30;10.48;;;;;;;;;;5034388;28;20036;-65
2023/04/15 00:20:43;;;;;;;16.23;10.18;;;;;;;;;;5040073;28;20102;-65
2023/04/15 00:23:08;;;;;;;14.55;9.32;;;;;;;;;;5046679;28;20085;-66
2023/04/15 00:25:33;;;;;;;20.95;9.63;;;;;;;;;;5059325;28;20031;-65
2023/04/15 00:28:00;;;;;;;17.42;9.57;;;;;;;;;;5039559;28;20412;-65
2023/04/15 00:30:25;;;;;;;12.95;9.70;;;;;;;;;;5057496;28;20047;-66
2023/04/15 00:32:53;;;;;;;14.63;9.25;;;;;;;;;;5063410;28;22559;-66
2023/04/15 00:35:18;;;;;;;16.20;9.50;;;;;;;;;;5063788;28;20036;-65
2023/04/15 00:37:44;;;;;;;13.15;9.20;;;;;;;;;;5063071;28;20040;-64
2023/04/15 00:40:11;;;;;;;15.27;9.82;;;;;;;;;;5039577;28;20119;-64
2023/04/15 00:42:36;;;;;;;17.73;9.95;;;;;;;;;;5059577;28;20059;-64
2023/04/15 00:45:02;;;;;;;14.75;9.48;;;;;;;;;;5059756;28;20046;-64
2023/04/15 00:47:28;;;;;;;16.65;8.68;;;;;;;;;;5061485;28;20177;-66
2023/04/15 00:49:53;;;;;;;18.83;9.10;;;;;;;;;;5062929;28;20058;-64
2023/04/15 00:52:21;;;;;;;14.88;9.05;;;;;;;;;;5058887;28;20123;-64
2023/04/15 00:54:46;;;;;;;15.30;9.00;;;;;;;;;;5062574;28;20040;-64
2023/04/15 00:57:12;;;;;;;18.08;10.77;;;;;;;;;;5062635;28;20062;-65
2023/04/15 00:59:37;;;;;;;18.63;10.27;;;;;;;;;;5061803;28;20137;-64
2023/04/15 01:02:02;;;;;;;16.88;9.13;;;;;;;;;;5061537;28;20039;-65
2023/04/15 01:04:28;;;;;;;16.55;8.90;;;;;;;;;;5043868;28;20070;-65
2023/04/15 01:06:56;;;;;;;15.10;8.93;;;;;;;;;;5028512;28;22282;-65
2023/04/15 01:09:23;;;;;;;14.25;8.65;;;;;;;;;;5043180;28;20139;-65
2023/04/15 01:11:49;;;;;;;16.10;9.82;;;;;;;;;;5044590;28;20046;-65
2023/04/15 01:14:15;;;;;;;19.90;9.50;;;;;;;;;;5042215;28;20056;-64
2023/04/15 01:16:40;;;;;;;15.75;10.40;;;;;;;;;;5061568;28;20036;-65
2023/04/15 01:19:07;;;;;;;21.58;10.88;;;;;;;;;;5037315;28;20045;-64
2023/04/15 01:21:35;;;;;;;13.98;9.15;;;;;;;;;;5057332;28;20147;-65
2023/04/15 01:24:01;;;;;;;17.52;9.75;;;;;;;;;;5061263;28;20028;-65
2023/04/15 01:26:27;;;;;;;13.02;8.52;;;;;;;;;;5060633;28;20044;-65
2023/04/15 01:28:52;;;;;;;11.98;8.52;;;;;;;;;;5041297;28;20044;-64
2023/04/15 01:31:17;;;;;;;14.70;9.70;;;;;;;;;;5059427;28;20028;-65
2023/04/15 01:33:45;;;;;;;16.20;10.60;;;;;;;;;;5031004;28;20122;-65
2023/04/15 01:36:11;;;;;;;17.85;10.80;;;;;;;;;;5062228;28;20063;-65
2023/04/15 01:38:36;;;;;;;15.75;10.30;;;;;;;;;;5060937;28;22158;-65
2023/04/15 01:41:03;;;;;;;15.13;9.70;;;;;;;;;;5059826;28;20055;-65
2023/04/15 01:43:28;;;;;;;11.35;9.05;;;;;;;;;;5058844;28;20040;-64
2023/04/15 01:45:54;;;;;;;14.13;9.50;;;;;;;;;;5062664;28;20086;-64
2023/04/15 01:48:20;;;;;;;16.30;9.25;;;;;;;;;;5061490;28;20053;-65
2023/04/15 01:50:45;;;;;;;17.38;8.85;;;;;;;;;;5040379;28;20032;-65
2023/04/15 01:53:10;;;;;;;14.43;9.00;;;;;;;;;;5060068;28;22397;-64
2023/04/15 01:55:36;;;;;;;14.82;9.40;;;;;;;;;;5060552;28;20043;-65
2023/04/15 01:58:01;;;;;;;13.27;9.23;;;;;;;;;;5058571;28;20093;-66
2023/04/15 02:00:27;;;;;;;13.70;8.63;;;;;;;;;;5042716;28;20095;-65
2023/04/15 02:02:54;;;;;;;15.40;9.00;;;;;;;;;;5063101;28;20048;-65
2023/04/15 02:05:20;;;;;;;16.50;9.38;;;;;;;;;;5061393;28;20380;-65
2023/04/15 02:07:45;;;;;;;13.45;9.30;;;;;;;;;;5040940;28;20052;-64
2023/04/15 02:10:12;;;;;;;16.48;9.82;;;;;;;;;;5060204;28;20129;-64
2023/04/15 02:12:38;;;;;;;14.13;9.93;;;;;;;;;;5059824;28;20040;-66
2023/04/15 02:15:04;;;;;;;18.83;10.68;;;;;;;;;;5063233;28;22942;-64
2023/04/15 02:17:29;;;;;;;16.90;10.80;;;;;;;;;;5038485;28;20047;-65
2023/04/15 02:19:57;;;;;;;20.85;12.05;;;;;;;;;;5041350;28;20032;-65
2023/04/15 02:22:22;;;;;;;18.90;11.75;;;;;;;;;;5060170;28;20047;-65
2023/04/15 02:24:47;;;;;;;17.08;11.52;;;;;;;;;;5039026;28;20036;-64
2023/04/15 02:27:19;;;;;;;15.57;11.60;;;;;;;;;;5044081;28;20048;-64
2023/04/15 02:29:49;;;;;;;19.15;11.02;;;;;;;;;;5059666;28;20035;-64
2023/04/15 02:32:15;;;;;;;19.77;10.90;;;;;;;;;;5042447;28;20070;-64
2023/04/15 02:34:42;;;;;;;17.40;9.98;;;;;;;;;;5056853;28;20093;-64
2023/04/15 02:37:08;;;;;;;18.90;10.23;;;;;;;;;;5062203;28;20489;-64
2023/04/15 02:39:36;;;;;;;18.83;10.35;;;;;;;;;;5038840;28;20035;-65
2023/04/15 02:42:01;;;;;;;14.90;9.73;;;;;;;;;;5060732;28;20144;-64
2023/04/15 02:44:27;;;;;;;14.60;9.65;;;;;;;;;;5041226;28;20047;-65
2023/04/15 02:46:53;;;;;;;13.48;8.23;;;;;;;;;;5060742;28;20144;-65
2023/04/15 02:49:22;;;;;;;13.75;9.70;;;;;;;;;;5022118;28;20074;-64
2023/04/15 02:51:48;;;;;;;12.77;9.13;;;;;;;;;;5057250;28;20032;-64
2023/04/15 02:54:17;;;;;;;14.75;9.32;;;;;;;;;;5058656;28;20599;-64
2023/04/15 02:56:42;;;;;;;13.85;8.98;;;;;;;;;;5037918;28;20292;-64
2023/04/15 02:59:11;;;;;;;13.90;9.27;;;;;;;;;;5061525;28;20063;-64
2023/04/15 03:01:36;;;;;;;15.75;9.80;;;;;;;;;;5060158;28;20032;-65
2023/04/15 03:04:01;;;;;;;21.92;9.65;;;;;;;;;;5058685;28;20054;-65
2023/04/15 03:06:27;;;;;;;16.02;10.13;;;;;;;;;;5058563;28;20153;-64
2023/04/15 03:08:55;;;;;;;16.13;9.80;;;;;;;;;;5059275;28;20874;-65
2023/04/15 03:11:21;;;;;;;17.85;10.15;;;;;;;;;;5060289;28;20123;-64
2023/04/15 03:13:46;;;;;;;18.63;10.30;;;;;;;;;;5059771;28;20111;-65
2023/04/15 03:16:12;;;;;;;17.13;10.35;;;;;;;;;;5039445;28;20036;-65
2023/04/15 03:18:37;;;;;;;18.90;11.30;;;;;;;;;;5057825;28;20027;-65
2023/04/15 03:21:05;;;;;;;16.42;10.40;;;;;;;;;;5041330;28;20537;-63
2023/04/15 03:23:31;;;;;;;19.27;10.73;;;;;;;;;;5060099;28;20036;-64
2023/04/15 03:25:57;;;;;;;17.77;10.80;;;;;;;;;;5059253;28;20119;-64
2023/04/15 03:28:22;;;;;;;17.25;10.80;;;;;;;;;;5037141;28;20516;-64
2023/04/15 03:30:50;;;;;;;21.63;12.07;;;;;;;;;;5060661;28;20036;-64
2023/04/15 03:33:15;;;;;;;19.85;11.30;;;;;;;;;;5058061;28;20032;-65
2023/04/15 03:35:40;;;;;;;16.00;10.90;;;;;;;;;;5059266;28;20032;-64
2023/04/15 03:38:06;;;;;;;18.65;11.45;;;;;;;;;;5041414;28;20036;-65
2023/04/15 03:40:31;;;;;;;17.55;11.80;;;;;;;;;;5026240;28;20040;-64
2023/04/15 03:42:58;;;;;;;18.98;11.70;;;;;;;;;;5057327;28;20051;-65
2023/04/15 03:45:26;;;;;;;19.05;12.05;;;;;;;;;;5057846;28;20211;-65
2023/04/15 03:47:52;;;;;;;19.25;12.30;;;;;;;;;;5058966;28;20513;-64
2023/04/15 03:50:20;;;;;;;19.17;12.40;;;;;;;;;;5059555;28;20040;-65
2023/04/15 03:52:46;;;;;;;20.48;12.52;;;;;;;;;;5058257;28;20068;-64
2023/04/15 03:55:11;;;;;;;21.40;12.57;;;;;;;;;;5060493;28;20055;-64
2023/04/15 03:57:38;;;;;;;18.13;13.20;;;;;;;;;;5036898;28;20123;-64
2023/04/15 04:00:08;;;;;;;19.50;12.98;;;;;;;;;;5059540;28;20669;-65
2023/04/15 04:02:33;;;;;;;17.67;12.57;;;;;;;;;;5037231;28;20036;-66
2023/04/15 04:04:58;;;;;;;22.58;13.25;;;;;;;;;;5057286;28;20089;-64
2023/04/15 04:07:24;;;;;;;19.98;13.40;;;;;;;;;;5042404;28;20048;-64
2023/04/15 04:09:49;;;;;;;16.73;12.90;;;;;;;;;;5063478;28;20133;-64
2023/04/15 04:12:14;;;;;;;18.95;13.43;;;;;;;;;;5047661;28;20036;-65
2023/04/15 04:14:43;;;;;;;19.52;13.50;;;;;;;;;;5040579;28;20037;-66
2023/04/15 04:17:08;;;;;;;21.70;13.70;;;;;;;;;;5063034;28;20048;-64
2023/04/15 04:19:34;;;;;;;22.48;13.02;;;;;;;;;;5041668;28;20446;-65
2023/04/15 04:21:59;;;;;;;23.17;13.50;;;;;;;;;;5064924;28;20069;-64
2023/04/15 04:24:25;;;;;;;18.90;13.43;;;;;;;;;;5063264;28;20040;-64
2023/04/15 04:26:52;;;;;;;21.35;13.82;;;;;;;;;;5040015;28;20064;-65
2023/04/15 04:29:18;;;;;;;21.30;13.43;;;;;;;;;;5027255;28;20820;-64
2023/04/15 04:31:43;;;;;;;22.13;14.20;;;;;;;;;;5027122;28;20084;-64
2023/04/15 04:34:11;;;;;;;20.52;14.00;;;;;;;;;;5060487;28;20040;-64
2023/04/15 04:36:36;;;;;;;20.08;14.20;;;;;;;;;;5061235;28;20907;-64
2023/04/15 04:39:01;;;;;;;20.17;14.32;;;;;;;;;;5061272;28;20032;-64
2023/04/15 04:41:27;;;;;;;23.85;14.07;;;;;;;;;;5063430;28;20047;-64
2023/04/15 04:43:52;;;;;;;22.35;14.35;;;;;;;;;;5061949;28;20032;-65
2023/04/15 04:46:20;;;;;;;24.30;14.02;;;;;;;;;;5059074;28;20040;-66
2023/04/15 04:48:45;;;;;;;22.20;14.35;;;;;;;;;;5042423;28;20036;-64
2023/04/15 04:51:13;;;;;;;22.95;14.48;;;;;;;;;;5061869;28;20079;-66
2023/04/15 04:53:38;;;;;;;23.48;14.80;;;;;;;;;;5064921;28;20154;-65
2023/04/15 04:56:03;;;;;;;22.67;14.05;;;;;;;;;;5062143;28;21896;-65
2023/04/15 04:58:29;;;;;;;20.38;13.90;;;;;;;;;;5062068;28;20028;-64
2023/04/15 05:00:54;;;;;;;25.13;15.45;;;;;;;;;;5059115;28;20033;-64
2023/04/15 05:03:20;;;;;;;23.38;14.35;;;;;;;;;;5045602;28;20529;-66
2023/04/15 05:05:48;;;;;;;25.40;14.60;;;;;;;;;;5061224;28;20384;-64
2023/04/15 05:08:13;;;;;;;19.58;14.32;;;;;;;;;;5060643;28;20838;-64
2023/04/15 05:10:38;;;;;;;23.13;14.63;;;;;;;;;;5059116;28;20036;-65
2023/04/15 05:13:06;;;;;;;20.42;14.00;;;;;;;;;;5061385;28;20036;-65
2023/04/15 05:15:32;;;;;;;23.90;14.52;;;;;;;;;;5056852;28;20469;-64
2023/04/15 05:17:57;;;;;;;20.75;13.80;;;;;;;;;;5055537;28;20043;-65
2023/04/15 05:20:22;;;;;;;20.98;14.82;;;;;;;;;;5043624;28;20097;-65
2023/04/15 05:22:48;;;;;;;19.33;14.27;;;;;;;;;;5028151;28;20028;-63
2023/04/15 05:25:13;;;;;;;25.83;14.40;;;;;;;;;;5061299;28;20036;-63
2023/04/15 05:27:38;;;;;;;23.92;14.90;;;;;;;;;;5055373;28;20981;-64
2023/04/15 05:30:04;;;;;;;20.60;14.02;;;;;;;;;;5054740;28;20032;-64
2023/04/15 05:32:30;;;;;;;24.98;14.98;;;;;;;;;;5056934;28;20035;-64
2023/04/15 05:34:55;;;;;;;21.15;14.13;;;;;;;;;;5059338;28;20575;-64
2023/04/15 05:37:23;;;;;;;24.15;14.70;;;;;;;;;;5042745;28;20408;-64
2023/04/15 05:39:48;;;;;;;24.77;14.75;;;;;;;;;;5037510;28;21195;-64
2023/04/15 05:42:14;;;;;;;23.30;14.95;;;;;;;;;;5041221;28;20047;-65
2023/04/15 05:44:39;;;;;;;20.48;14.68;;;;;;;;;;5036861;28;21618;-64
2023/04/15 05:47:08;;;;;;;21.58;14.57;;;;;;;;;;5057769;28;20068;-64
2023/04/15 05:49:36;;;;;;;22.88;14.25;;;;;;;;;;5057613;28;20046;-64
2023/04/15 05:52:01;;;;;;;23.05;14.60;;;;;;;;;;5057398;28;20032;-63
2023/04/15 05:54:26;;;;;;;19.65;13.95;;;;;;;;;;5057619;28;20040;-65
2023/04/15 05:56:52;;;;;;;21.90;13.60;;;;;;;;;;5061394;28;20056;-65
2023/04/15 05:59:17;;;;;;;21.85;14.07;;;;;;;;;;5039210;28;20036;-64
2023/04/15 06:01:43;;;;;;;24.58;14.48;;;;;;;;;;5057708;28;20542;-63
2023/04/15 06:04:10;;;;;;;20.23;13.43;;;;;;;;;;5058424;28;20036;-64
2023/04/15 06:06:36;;;;;;;21.45;15.05;;;;;;;;;;5059534;28;20035;-63
2023/04/15 06:09:01;;;;;;;21.00;14.00;;;;;;;;;;5057358;28;20028;-64
2023/04/15 06:11:26;;;;;;;25.23;14.90;;;;;;;;;;5038929;28;20628;-63
2023/04/15 06:13:52;;;;;;;21.25;13.90;;;;;;;;;;5056750;28;20028;-63
2023/04/15 06:16:17;;;;;;;20.15;14.18;;;;;;;;;;5019901;28;20048;-63
2023/04/15 06:18:42;;;;;;;20.38;13.85;;;;;;;;;;5056172;28;20119;-63
2023/04/15 06:21:07;;;;;;;24.20;14.18;;;;;;;;;;5053592;28;20036;-64
2023/04/15 06:23:33;;;;;;;20.83;13.55;;;;;;;;;;5054024;28;20032;-64
2023/04/15 06:26:01;;;;;;;19.45;13.18;;;;;;;;;;5056665;28;20043;-63
2023/04/15 06:28:27;;;;;;;22.10;13.65;;;;;;;;;;5053277;28;20875;-63
2023/04/15 06:30:52;;;;;;;21.63;13.48;;;;;;;;;;5038518;28;20554;-63
2023/04/15 06:33:20;;;;;;;20.35;13.73;;;;;;;;;;5036245;28;20161;-63
2023/04/15 06:35:48;;;;;;;18.45;13.25;;;;;;;;;;5036047;28;20564;-63
2023/04/15 06:38:13;;;;;;;18.05;12.95;;;;;;;;;;5016984;28;20925;-63
2023/04/15 06:40:39;;;;;;;20.55;14.20;;;;;;;;;;5014831;28;20420;-62
2023/04/15 06:43:05;;;;;;;19.55;13.90;;;;;;;;;;5005444;28;20457;-63
2023/04/15 06:45:32;;;;;;;17.30;13.07;;;;;;;;;;5036977;28;20040;-64
2023/04/15 06:48:00;;;;;;;19.85;13.25;;;;;;;;;;5034891;28;20183;-68
2023/04/15 06:50:26;;;;;;;21.50;12.85;;;;;;;;;;5037509;28;20862;-67
2023/04/15 06:52:51;;;;;;;18.75;12.55;;;;;;;;;;5033988;28;20467;-68
2023/04/15 06:55:16;;;;;;;16.92;11.50;;;;;;;;;;5038201;28;20044;-68
2023/04/15 06:57:41;;;;;;;14.95;10.93;;;;;;;;;;5035442;28;20536;-68
2023/04/15 07:00:07;;;;;;;15.73;11.15;;;;;;;;;;4999636;28;20066;-68
2023/04/15 07:02:32;;;;;;;13.13;10.73;;;;;;;;;;5033798;28;20040;-68
2023/04/15 07:04:58;;;;;;;13.00;9.82;;;;;;;;;;5035293;28;20551;-67
2023/04/15 07:07:24;;;;;;;12.45;9.73;;;;;;;;;;5033863;28;20519;-67
2023/04/15 07:09:50;;;;;;;13.60;10.10;;;;;;;;;;5034073;28;20040;-67
2023/04/15 07:12:15;;;;;;;13.43;10.35;;;;;;;;;;5015031;28;20036;-68
2023/04/15 07:14:40;;;;;;;11.52;9.68;;;;;;;;;;5024613;28;20642;-67
2023/04/15 07:17:08;;;;;;;13.57;9.70;;;;;;;;;;5016723;28;20048;-67
2023/04/15 07:19:33;;;;;;;10.80;9.52;;;;;;;;;;5039755;28;21081;-67
2023/04/15 07:21:59;;;;;;;14.23;10.25;;;;;;;;;;5034502;28;20028;-67
2023/04/15 07:24:25;;;;;;;12.23;8.90;;;;;;;;;;5017583;28;20093;-66
2023/04/15 07:26:51;;;;;;;11.82;8.80;;;;;;;;;;5034576;28;20777;-66
2023/04/15 07:29:19;;;;;;;9.60;7.90;;;;;;;;;;5037002;28;20090;-67
2023/04/15 07:31:45;;;;;;;8.10;7.25;;;;;;;;;;5017192;28;20065;-68
2023/04/15 07:34:10;;;;;;;8.30;7.03;;;;;;;;;;5037525;28;20227;-67
2023/04/15 07:36:35;;;;;;;10.05;7.03;;;;;;;;;;5036798;28;20036;-67
2023/04/15 07:39:04;;;;;;;10.05;7.05;;;;;;;;;;5037372;28;20285;-66
2023/04/15 07:41:30;;;;;;;8.00;6.53;;;;;;;;;;5037223;28;20028;-67
2023/04/15 07:43:55;;;;;;;8.45;6.57;;;;;;;;;;5035819;28;20120;-67
2023/04/15 07:46:23;;;;;;;9.25;6.55;;;;;;;;;;5035916;28;20543;-67
2023/04/15 07:48:51;;;;;;;8.48;6.68;;;;;;;;;;5015528;28;20150;-67
2023/04/15 07:51:18;;;;;;;9.30;6.65;;;;;;;;;;5037177;28;20036;-66
2023/04/15 07:53:44;;;;;;;10.57;6.47;;;;;;;;;;5000281;28;20481;-68
2023/04/15 07:56:09;;;;;;;9.27;6.50;;;;;;;;;;5014408;28;20084;-66
2023/04/15 07:58:34;;;;;;;10.63;6.20;;;;;;;;;;5036682;28;20032;-64
2023/04/15 08:01:00;;;;;;;9.15;6.60;;;;;;;;;;5038321;28;20616;-63
2023/04/15 08:03:25;;;;;;;7.90;6.05;;;;;;;;;;5035448;28;20052;-65
2023/04/15 08:05:51;;;;;;;8.68;6.25;;;;;;;;;;5035843;28;20123;-65
2023/04/15 08:08:16;;;;;;;7.05;5.50;;;;;;;;;;5011599;28;20064;-72
2023/04/15 08:10:42;;;;;;;7.05;5.45;;;;;;;;;;5035765;28;20126;-66
2023/04/15 08:13:07;;;;;;;6.57;5.38;;;;;;;;;;5037597;28;20174;-65
2023/04/15 08:15:35;;;;;;;7.00;5.55;;;;;;;;;;5020398;28;20050;-66
2023/04/15 08:18:02;;;;;;;7.65;5.72;;;;;;;;;;5035563;28;20282;-64
2023/04/15 08:20:28;;;;;;;8.00;6.15;;;;;;;;;;5035111;28;20028;-65
2023/04/15 08:22:57;;;;;;;7.68;6.00;;;;;;;;;;5012283;28;20033;-65
2023/04/15 08:25:25;;;;;;;6.65;5.50;;;;;;;;;;5037665;28;20171;-64
2023/04/15 08:27:50;;;;;;;6.75;5.47;;;;;;;;;;5012651;28;20814;-65
2023/04/15 08:30:15;;;;;;;7.57;5.30;;;;;;;;;;5017902;28;20068;-66
2023/04/15 08:32:41;;;;;;;7.70;5.90;;;;;;;;;;5037581;28;20292;-67
2023/04/15 08:35:07;;;;;;;6.95;6.03;;;;;;;;;;5038364;28;20066;-67
2023/04/15 08:37:35;;;;;;;6.88;5.70;;;;;;;;;;5036402;28;20220;-66
2023/04/15 08:40:00;;;;;;;7.40;5.57;;;;;;;;;;5034291;28;20075;-64
2023/04/15 08:42:42;;;;;;;7.30;5.93;;;;;;;;;;5017804;28;20297;-64
2023/04/15 08:45:08;;;;;;;9.23;6.07;;;;;;;;;;5034383;28;20443;-68
2023/04/15 08:47:36;;;;;;;7.70;5.70;;;;;;;;;;5033870;28;20262;-66
2023/04/15 08:50:03;;;;;;;7.28;5.05;;;;;;;;;;5030908;28;20040;-70
2023/04/15 08:52:31;;;;;;;7.25;4.95;;;;;;;;;;5017966;28;20045;-68
2023/04/15 08:54:57;;;;;;;8.80;5.40;;;;;;;;;;5035187;28;20621;-67
2023/04/15 08:57:26;;;;;;;7.03;4.70;;;;;;;;;;5039789;28;20071;-64
2023/04/15 08:59:52;;;;;;;5.55;4.38;;;;;;;;;;5040028;28;20257;-66
2023/04/15 09:02:17;;;;;;;8.20;4.75;;;;;;;;;;5015506;28;20042;-65
2023/04/15 09:04:42;;;;;;;6.30;4.18;;;;;;;;;;5036114;28;20307;-67
2023/04/15 09:07:08;;;;;;;5.72;4.32;;;;;;;;;;5018646;28;20579;-67
2023/04/15 09:09:36;;;;;;;5.88;3.97;;;;;;;;;;5038657;28;20524;-65
2023/04/15 09:12:01;;;;;;;6.63;4.63;;;;;;;;;;5039672;28;20599;-65
2023/04/15 09:14:28;;;;;;;6.43;4.47;;;;;;;;;;5039504;28;20046;-65
2023/04/15 09:17:03;;;;;;;6.43;4.30;;;;;;;;;;5037958;28;20040;-64
2023/04/15 09:19:28;;;;;;;6.80;4.50;;;;;;;;;;5000811;28;20055;-63
2023/04/15 09:21:55;;;;;;;7.95;4.07;;;;;;;;;;5016359;28;20159;-66
2023/04/15 09:24:21;;;;;;;7.05;4.60;;;;;;;;;;5037923;28;20228;-64
2023/04/15 09:26:47;;;;;;;5.60;3.28;;;;;;;;;;5040250;28;20086;-65
2023/04/15 09:29:12;;;;;;;6.30;3.00;;;;;;;;;;5037748;28;20040;-65
2023/04/15 09:31:38;;;;;;;6.10;3.22;;;;;;;;;;5021641;28;20124;-67
2023/04/15 09:34:06;;;;;;;6.65;3.42;;;;;;;;;;5022630;28;20252;-67
2023/04/15 09:36:50;;;;;;;8.25;3.88;;;;;;;;;;5041463;28;20036;-65
2023/04/15 09:39:16;;;;;;;6.97;3.72;;;;;;;;;;5019702;28;20036;-65
2023/04/15 09:41:42;;;;;;;5.03;3.65;;;;;;;;;;5037921;28;20090;-64
2023/04/15 09:44:20;;;;;;;6.55;3.33;;;;;;;;;;5015850;28;20043;-65
2023/04/15 09:46:46;;;;;;;6.25;3.60;;;;;;;;;;5020314;28;20252;-65
2023/04/15 09:49:11;;;;;;;5.10;3.47;;;;;;;;;;5037154;28;20454;-66
2023/04/15 09:51:37;;;;;;;6.80;3.20;;;;;;;;;;5039958;28;20285;-64
2023/04/15 09:54:03;;;;;;;5.18;3.20;;;;;;;;;;5037416;28;20472;-64
2023/04/15 09:56:40;;;;;;;6.22;3.38;;;;;;;;;;5025065;28;20028;-64
2023/04/15 09:59:06;;;;;;;6.13;3.70;;;;;;;;;;5037788;28;20609;-65
2023/04/15 10:01:31;;;;;;;5.25;3.13;;;;;;;;;;5036449;28;20170;-66
2023/04/15 10:03:56;;;;;;;5.25;3.05;;;;;;;;;;5038892;28;20032;-64
2023/04/15 10:06:27;;;;;;;5.07;3.15;;;;;;;;;;5019120;28;20038;-65
2023/04/15 10:08:53;;;;;;;6.28;3.00;;;;;;;;;;5021229;28;20400;-64
2023/04/15 10:11:19;;;;;;;5.05;3.20;;;;;;;;;;5036279;28;20036;-68
2023/04/15 10:13:45;;;;;;;6.18;3.00;;;;;;;;;;5038188;28;20469;-67
2023/04/15 10:16:13;;;;;;;5.85;3.22;;;;;;;;;;5037644;28;20087;-68
2023/04/15 10:18:41;;;;;;;6.30;3.70;;;;;;;;;;5037680;28;20738;-66
2023/04/15 10:21:09;;;;;;;7.35;3.60;;;;;;;;;;5039745;28;20844;-65
2023/04/15 10:23:34;;;;;;;5.28;3.78;;;;;;;;;;5014928;28;20229;-66
2023/04/15 10:26:00;;;;;;;6.70;3.88;;;;;;;;;;5036759;28;20300;-67
2023/04/15 10:28:26;;;;;;;6.43;3.28;;;;;;;;;;5037878;28;20329;-67
2023/04/15 10:30:53;;;;;;;7.47;3.67;;;;;;;;;;5035643;28;20839;-69
2023/04/15 10:33:20;;;;;;;6.50;3.53;;;;;;;;;;5030491;28;20062;-67
2023/04/15 10:35:47;;;;;;;4.93;3.28;;;;;;;;;;5032686;28;20312;-67
2023/04/15 10:38:32;;;;;;;3.60;2.88;;;;;;;;;;5036829;28;20131;-62
2023/04/15 10:41:16;;;;;;;9.07;3.50;;;;;;;;;;5018287;28;20028;-66
2023/04/15 10:43:45;;;;;;;5.93;3.28;;;;;;;;;;5037121;28;20656;-68
2023/04/15 10:46:10;;;;;;;5.35;3.05;;;;;;;;;;5035055;28;20368;-67
2023/04/15 10:48:35;;;;;;;5.15;3.05;;;;;;;;;;5037241;28;20078;-67
2023/04/15 10:51:02;;;;;;;6.90;4.30;;;;;;;;;;5034984;28;20039;-67
2023/04/15 10:53:30;;;;;;;7.28;3.72;;;;;;;;;;5012541;28;20953;-65
2023/04/15 10:55:56;;;;;;;7.18;3.35;;;;;;;;;;5035939;28;20032;-66
2023/04/15 10:58:24;;;;;;;6.60;3.50;;;;;;;;;;5037925;28;21865;-66
2023/04/15 11:00:53;;;;;;;6.03;3.30;;;;;;;;;;5037264;28;20606;-66
2023/04/15 11:03:38;;;;;;;5.53;3.58;;;;;;;;;;5019666;28;20039;-66
2023/04/15 11:06:05;;;;;;;5.07;2.88;;;;;;;;;;5035363;28;20687;-66
2023/04/15 11:08:49;;;;;;;4.80;2.65;;;;;;;;;;5036108;28;21134;-67
2023/04/15 11:11:16;;;;;;;4.85;2.40;;;;;;;;;;5022640;28;20585;-67
2023/04/15 11:13:48;;;;;;;5.00;2.20;;;;;;;;;;5015644;28;20040;-68
2023/04/15 11:16:13;;;;;;;;;;;;;;;;;;5017332;28;20145;-65
2023/04/15 11:18:39;;;;;;;3.40;2.30;;;;;;;;;;5036816;28;20156;-69
2023/04/15 11:21:05;;;;;;;4.28;2.20;;;;;;;;;;5016148;28;20393;-68
2023/04/15 11:23:32;;;;;;;6.03;2.10;;;;;;;;;;5015189;28;20042;-67
2023/04/15 11:26:04;;;;;;;3.17;1.90;;;;;;;;;;5034566;28;20330;-67
2023/04/15 11:28:30;;;;;;;3.80;2.03;;;;;;;;;;5036704;28;20587;-67
2023/04/15 11:30:58;;;;;;;3.10;1.63;;;;;;;;;;5039490;28;20110;-68
2023/04/15 11:33:26;;;;;;;3.28;1.70;;;;;;;;;;5035239;28;20468;-68
2023/04/15 11:35:53;;;;;;;5.55;2.10;;;;;;;;;;5034861;28;21808;-67
2023/04/15 11:38:18;;;;;;;3.97;1.80;;;;;;;;;;5015255;28;20129;-68
2023/04/15 11:40:44;;;;;;;3.33;1.90;;;;;;;;;;5036451;28;20291;-70
2023/04/15 11:43:10;;;;;;;5.88;2.28;;;;;;;;;;5019619;28;20032;-67
2023/04/15 11:45:36;;;;;;;3.90;1.80;;;;;;;;;;5036784;28;20638;-68
2023/04/15 11:48:08;;;;;;;3.40;2.00;;;;;;;;;;5037245;28;20570;-69
2023/04/15 11:50:34;;;;;;;3.85;2.08;;;;;;;;;;5034420;28;20060;-68
2023/04/15 11:53:04;;;;;;;2.53;1.50;;;;;;;;;;5018270;28;20124;-65
2023/04/15 11:55:30;;;;;;;6.05;1.90;;;;;;;;;;5037460;28;20425;-70
2023/04/15 11:58:14;;;;;;;9.85;2.00;;;;;;;;;;5037805;28;20130;-68
2023/04/15 12:00:52;;;;;;;4.28;1.80;;;;;;;;;;5037255;28;20091;-68
2023/04/15 12:03:22;;;;;;;3.17;1.83;;;;;;;;;;5036434;28;20059;-68
2023/04/15 12:06:06;;;;;;;5.03;2.05;;;;;;;;;;4999757;28;20374;-69
2023/04/15 12:08:47;;;;;;;4.70;1.90;;;;;;;;;;5031745;28;20073;-68
2023/04/15 12:11:12;;;;;;;18.30;4.50;;;;;;;;;;5034265;28;20266;-68
2023/04/15 12:13:38;;;;;;;21.63;3.88;;;;;;;;;;5034872;28;20036;-63
2023/04/15 12:16:03;;;;;;;11.40;3.10;;;;;;;;;;5015151;28;20049;-68
2023/04/15 12:18:28;;;;;;;16.35;3.65;;;;;;;;;;5032573;28;20867;-65
2023/04/15 12:20:56;;;;;;;19.05;3.75;;;;;;;;;;5033028;28;20565;-64
2023/04/15 12:23:22;;;;;;;21.48;4.15;;;;;;;;;;5015318;28;21654;-68
2023/04/15 12:25:50;;;;;;;23.85;4.57;;;;;;;;;;5029494;28;20123;-67
2023/04/15 12:28:16;;;;;;;22.52;4.97;;;;;;;;;;5031466;28;20048;-68
2023/04/15 12:30:48;;;;;;;24.83;5.47;;;;;;;;;;5014153;28;20564;-68
2023/04/15 12:33:16;;;;;;;24.58;5.05;;;;;;;;;;5036240;28;20039;-67
2023/04/15 12:35:41;;;;;;;20.20;4.68;;;;;;;;;;5032672;28;20700;-66
2023/04/15 12:38:09;;;;;;;26.35;5.03;;;;;;;;;;5035788;28;20036;-66
2023/04/15 12:40:34;;;;;;;27.45;5.13;;;;;;;;;;5031953;28;20032;-67
2023/04/15 12:42:59;;;;;;;25.27;4.63;;;;;;;;;;5002318;28;20036;-68
2023/04/15 12:45:25;;;;;;;26.13;4.47;;;;;;;;;;5021101;28;20356;-69
2023/04/15 12:47:50;;;;;;;35.13;4.95;;;;;;;;;;5011525;28;21942;-68
2023/04/15 12:50:16;;;;;;;28.58;4.10;;;;;;;;;;5037896;28;20044;-66
2023/04/15 12:52:44;;;;;;;34.97;5.60;;;;;;;;;;5015354;28;20043;-66
2023/04/15 12:55:11;;;;;;;24.55;4.40;;;;;;;;;;5037170;28;20222;-64
2023/04/15 12:57:37;;;;;;;29.77;4.88;;;;;;;;;;5022933;28;20472;-66
2023/04/15 13:00:07;;;;;;;30.15;5.28;;;;;;;;;;5018356;28;20273;-68
2023/04/15 13:02:32;;;;;;;26.38;4.50;;;;;;;;;;5016152;28;20471;-67
2023/04/15 13:04:57;;;;;;;21.83;3.92;;;;;;;;;;5037593;28;20067;-68
2023/04/15 13:07:22;;;;;;;28.08;4.82;;;;;;;;;;5038124;28;20048;-67
2023/04/15 13:09:48;;;;;;;24.60;4.95;;;;;;;;;;5037792;28;20334;-69
2023/04/15 13:12:15;;;;;;;23.58;4.93;;;;;;;;;;5037878;28;20664;-72
2023/04/15 13:14:41;;;;;;;19.85;4.03;;;;;;;;;;5018427;28;20036;-72
2023/04/15 13:17:09;;;;;;;19.25;3.72;;;;;;;;;;5036684;28;20047;-64
2023/04/15 13:19:35;;;;;;;20.25;4.47;;;;;;;;;;5036287;28;20488;-68
2023/04/15 13:22:01;;;;;;;24.13;5.00;;;;;;;;;;5017976;28;20862;-66
2023/04/15 13:24:26;;;;;;;22.88;4.13;;;;;;;;;;5035617;28;20200;-67
2023/04/15 13:26:52;;;;;;;20.48;4.10;;;;;;;;;;5034367;28;20253;-68
2023/04/15 13:29:19;;;;;;;19.52;3.90;;;;;;;;;;5035550;28;22107;-71
2023/04/15 13:31:44;;;;;;;20.17;4.38;;;;;;;;;;5036413;28;20032;-64
2023/04/15 13:34:10;;;;;;;27.33;4.97;;;;;;;;;;5035972;28;20269;-68
2023/04/15 13:36:35;;;;;;;23.77;4.82;;;;;;;;;;5012737;28;20602;-65
2023/04/15 13:39:01;;;;;;;16.42;3.72;;;;;;;;;;5001828;28;20075;-68
2023/04/15 13:41:26;;;;;;;20.70;5.22;;;;;;;;;;5037074;28;20093;-69
2023/04/15 13:43:51;;;;;;;19.05;4.68;;;;;;;;;;5036630;28;20143;-68
2023/04/15 13:46:17;;;;;;;13.43;3.75;;;;;;;;;;5034163;28;20028;-70
2023/04/15 13:48:45;;;;;;;20.85;4.28;;;;;;;;;;5035285;28;21982;-68
2023/04/15 13:51:10;;;;;;;18.70;4.25;;;;;;;;;;5017905;28;20666;-71
2023/04/15 13:53:35;;;;;;;23.38;4.50;;;;;;;;;;5013920;28;20032;-69
2023/04/15 13:56:00;;;;;;;19.42;3.50;;;;;;;;;;5034185;28;20460;-67
2023/04/15 13:58:26;;;;;;;21.27;3.92;;;;;;;;;;5015530;28;20067;-67
2023/04/15 14:00:51;;;;;;;11.70;3.20;;;;;;;;;;4999212;28;20673;-71
2023/04/15 14:03:16;;;;;;;15.13;3.38;;;;;;;;;;5012896;28;20039;-62
2023/04/15 14:05:41;;;;;;;15.13;3.13;;;;;;;;;;5012588;28;20416;-71
2023/04/15 14:08:07;;;;;;;15.57;3.17;;;;;;;;;;5012741;28;20290;-65
2023/04/15 14:10:32;;;;;;;13.70;3.42;;;;;;;;;;5033634;28;20590;-64
2023/04/15 14:12:57;;;;;;;14.77;3.47;;;;;;;;;;5011394;28;20063;-69
2023/04/15 14:15:25;;;;;;;16.55;3.10;;;;;;;;;;5033193;28;20047;-72
2023/04/15 14:17:50;;;;;;;17.05;3.22;;;;;;;;;;5032885;28;20323;-70
2023/04/15 14:20:16;;;;;;;22.80;3.50;;;;;;;;;;5000750;28;20334;-67
2023/04/15 14:22:41;;;;;;;15.10;3.03;;;;;;;;;;5033674;28;20344;-70
2023/04/15 14:25:09;;;;;;;17.88;3.60;;;;;;;;;;5035857;28;20036;-69
2023/04/15 14:27:34;;;;;;;15.27;3.00;;;;;;;;;;5034430;28;20487;-72